createdAt,value
2024-02-20T00:00:04.913Z,6.73
2024-02-20T00:04:13.217Z,6.55
2024-02-20T00:08:27.515Z,6.42
2024-02-20T00:12:38.479Z,6.29
2024-02-20T00:16:45.822Z,6.18
2024-02-20T00:24:59.350Z,6.06
2024-02-20T00:29:07.696Z,6.01
2024-02-20T00:33:16.049Z,5.95
2024-02-20T00:37:22.885Z,5.92
2024-02-20T00:41:42.577Z,5.88
2024-02-20T00:45:48.740Z,5.85
2024-02-20T00:53:07.658Z,5.82
2024-02-20T00:57:13.277Z,5.80
2024-02-20T01:00:54.216Z,5.74
2024-02-20T01:04:37.690Z,5.70
2024-02-20T01:08:40.576Z,5.69
2024-02-20T01:15:39.476Z,5.65
2024-02-20T01:19:43.204Z,5.65
2024-02-20T01:23:47.500Z,5.71
2024-02-20T01:27:53.836Z,5.77
2024-02-20T01:32:30.092Z,5.81
2024-02-20T01:36:32.256Z,5.84
2024-02-20T01:43:54.705Z,5.86
2024-02-20T01:47:43.782Z,5.85
2024-02-20T01:51:50.104Z,5.86
2024-02-20T01:55:49.593Z,5.87
2024-02-20T01:59:40.022Z,5.88
2024-02-20T02:03:53.473Z,5.91
2024-02-20T02:08:09.709Z,5.93
2024-02-20T02:12:21.736Z,5.95
2024-02-20T02:16:30.079Z,5.97
2024-02-20T02:20:38.841Z,5.95
2024-02-20T02:27:57.013Z,5.89
2024-02-20T02:31:42.073Z,5.88
2024-02-20T02:40:02.160Z,5.80
2024-02-20T02:43:50.062Z,5.80
2024-02-20T02:47:35.840Z,5.78
2024-02-20T02:51:21.772Z,5.76
2024-02-20T02:55:10.111Z,5.76
2024-02-20T03:02:24.714Z,5.79
2024-02-20T03:06:11.855Z,5.76
2024-02-20T03:09:58.636Z,5.76
2024-02-20T03:27:33.234Z,5.77
2024-02-20T03:35:44.131Z,5.76
2024-02-20T03:39:53.643Z,5.77
2024-02-20T03:48:06.275Z,5.78
2024-02-20T03:52:14.118Z,5.77
2024-02-20T03:56:23.849Z,5.78
2024-02-20T04:00:33.960Z,5.77
2024-02-20T04:04:34.973Z,5.78
2024-02-20T04:13:19.381Z,5.76
2024-02-20T04:17:24.872Z,5.78
2024-02-20T04:21:12.332Z,5.73
2024-02-20T04:28:24.043Z,5.70
2024-02-20T04:32:09.794Z,5.66
2024-02-20T04:36:16.735Z,5.65
2024-02-20T04:40:03.094Z,5.64
2024-02-20T04:43:49.995Z,5.64
2024-02-20T04:47:50.101Z,5.67
2024-02-20T04:51:58.697Z,5.69
2024-02-20T04:55:29.711Z,5.65
2024-02-20T04:59:16.640Z,5.65
2024-02-20T05:03:03.563Z,5.64
2024-02-20T05:07:37.193Z,5.66
2024-02-20T05:11:24.057Z,5.62
2024-02-20T05:18:41.208Z,5.61
2024-02-20T05:23:11.732Z,5.63
2024-02-20T05:30:52.946Z,5.59
2024-02-20T05:42:40.661Z,5.58
2024-02-20T05:46:22.097Z,5.57
2024-02-20T05:53:32.586Z,5.58
2024-02-20T06:01:19.953Z,5.67
2024-02-20T06:05:24.004Z,5.71
2024-02-20T06:09:09.915Z,5.69
2024-02-20T06:12:53.457Z,5.69
2024-02-20T06:20:41.680Z,5.80
2024-02-20T06:28:18.539Z,5.90
2024-02-20T06:35:34.709Z,5.97
2024-02-20T06:39:18.652Z,5.98
2024-02-20T06:43:06.978Z,5.97
2024-02-20T06:47:18.848Z,5.96
2024-02-20T06:51:29.004Z,5.99
2024-02-20T06:59:14.575Z,6.06
2024-02-20T07:03:10.861Z,6.09
2024-02-20T07:06:48.592Z,6.08
2024-02-20T07:18:37.565Z,6.17
2024-02-20T07:26:15.689Z,6.23
2024-02-20T07:30:01.691Z,6.28
2024-02-20T07:34:46.320Z,6.36
2024-02-20T07:39:10.104Z,6.49
2024-02-20T07:55:11.986Z,6.66
2024-02-20T08:05:38.102Z,6.60
2024-02-20T08:16:10.608Z,6.62
2024-02-20T08:39:04.496Z,7.02
2024-02-20T08:46:33.729Z,7.29
2024-02-20T09:00:59.989Z,7.92
2024-02-20T09:04:50.611Z,7.95
2024-02-20T09:12:01.967Z,7.76
2024-02-20T09:16:07.120Z,7.68
2024-02-20T09:28:21.651Z,7.64
2024-02-20T09:37:11.097Z,7.69
2024-02-20T09:41:05.119Z,7.67
2024-02-20T09:45:48.488Z,7.61
2024-02-20T09:49:48.010Z,7.61
2024-02-20T09:53:54.446Z,7.66
2024-02-20T09:57:12.907Z,7.71
2024-02-20T10:02:01.818Z,7.84
2024-02-20T10:06:07.386Z,7.93
2024-02-20T10:10:35.435Z,7.96
2024-02-20T10:14:12.511Z,7.99
2024-02-20T10:18:16.358Z,7.97
2024-02-20T10:21:40.316Z,7.94
2024-02-20T10:27:01.518Z,7.88
2024-02-20T10:38:47.737Z,7.88
2024-02-20T10:42:26.731Z,7.90
2024-02-20T10:45:23.695Z,7.90
2024-02-20T10:48:40.793Z,7.93
2024-02-20T10:53:41.916Z,7.96
2024-02-20T11:01:32.131Z,8.16
2024-02-20T11:09:22.690Z,8.51
2024-02-20T11:14:18.190Z,8.61
2024-02-20T11:21:49.056Z,8.84
2024-02-20T11:29:31.328Z,8.89
2024-02-20T11:33:19.187Z,8.87
2024-02-20T11:44:21.433Z,8.66
2024-02-20T11:48:11.776Z,8.57
2024-02-20T11:55:56.887Z,8.49
2024-02-20T12:01:29.446Z,8.53
2024-02-20T12:05:12.100Z,8.53
2024-02-20T12:09:23.401Z,8.54
2024-02-20T12:13:03.371Z,8.55
2024-02-20T12:16:38.797Z,8.54
2024-02-20T12:20:42.363Z,8.54
2024-02-20T12:28:55.141Z,8.67
2024-02-20T12:40:50.190Z,8.92
2024-02-20T12:44:43.138Z,8.96
2024-02-20T12:48:45.406Z,9.03
2024-02-20T12:52:29.436Z,9.10
2024-02-20T12:55:49.155Z,9.20
2024-02-20T12:59:38.283Z,9.29
2024-02-20T13:02:56.698Z,9.42
2024-02-20T13:09:43.503Z,9.62
2024-02-20T13:12:49.694Z,9.62
2024-02-20T13:16:37.570Z,9.55
2024-02-20T13:19:59.461Z,9.46
2024-02-20T13:23:47.625Z,9.35
2024-02-20T13:27:04.618Z,9.24
2024-02-20T13:30:44.339Z,9.07
2024-02-20T13:38:09.553Z,8.52
2024-02-20T13:41:38.811Z,8.33
2024-02-20T13:57:41.333Z,8.03
2024-02-20T14:46:09.356Z,8.98
2024-02-20T15:15:04.067Z,8.47
2024-02-20T15:28:49.187Z,7.89
2024-02-20T15:33:15.902Z,7.79
2024-02-20T15:38:04.974Z,7.75
2024-02-20T15:51:44.646Z,7.56
2024-02-20T16:18:42.494Z,8.11
2024-02-20T16:37:23.713Z,7.66
2024-02-20T16:41:50.980Z,7.59
2024-02-20T16:46:37.338Z,7.49
2024-02-20T16:59:58.097Z,7.34
2024-02-20T17:04:35.623Z,7.28
2024-02-20T17:09:37.081Z,7.20
2024-02-20T17:14:23.600Z,7.14
2024-02-20T17:21:32.278Z,7.08
2024-02-20T17:23:36.292Z,6.98
2024-02-20T17:28:18.437Z,6.94
2024-02-20T17:33:11.009Z,6.91
2024-02-20T17:42:32.957Z,6.82
2024-02-20T17:47:19.403Z,6.75
2024-02-20T17:56:29.352Z,6.63
2024-02-20T18:01:14.415Z,6.58
2024-02-20T18:05:59.231Z,6.53
2024-02-20T18:10:47.306Z,6.49
2024-02-20T18:15:28.600Z,6.42
2024-02-20T18:20:15.383Z,6.37
2024-02-20T18:30:00.070Z,6.25
2024-02-20T18:39:32.141Z,6.17
2024-02-20T18:47:19.832Z,6.11
2024-02-20T18:51:04.477Z,6.08
2024-02-20T18:54:59.675Z,6.06
2024-02-20T18:58:23.739Z,6.04
2024-02-20T19:01:57.796Z,6.04
2024-02-20T19:05:11.729Z,6.04
2024-02-20T19:08:41.603Z,6.04
2024-02-20T19:12:42.862Z,6.05
2024-02-20T19:16:29.721Z,6.03
2024-02-20T19:20:16.157Z,6.01
2024-02-20T19:24:02.699Z,5.96
2024-02-20T19:31:50.797Z,5.78
2024-02-20T19:35:20.829Z,5.74
2024-02-20T19:38:50.940Z,5.73
2024-02-20T19:42:37.007Z,5.72
2024-02-20T19:46:44.541Z,5.70
2024-02-20T20:05:12.446Z,5.63
2024-02-20T20:08:50.524Z,5.53
2024-02-20T20:11:54.417Z,5.49
2024-02-20T20:15:23.242Z,5.49
2024-02-20T20:18:11.546Z,5.46
2024-02-20T20:21:27.280Z,5.45
2024-02-20T20:32:10.376Z,5.43
2024-02-20T20:41:12.552Z,5.52
2024-02-20T20:45:29.243Z,5.57
2024-02-20T20:49:27.936Z,5.58
2024-02-20T20:53:13.796Z,5.58
2024-02-20T20:56:45.858Z,5.59
2024-02-20T21:00:31.596Z,5.60
2024-02-20T21:04:08.696Z,5.61
2024-02-20T21:07:52.788Z,5.62
2024-02-20T21:11:20.633Z,5.60
2024-02-20T21:14:50.905Z,5.56
2024-02-20T21:18:37.746Z,5.54
2024-02-20T21:26:09.096Z,5.50
2024-02-20T21:29:47.695Z,5.49
2024-02-20T21:33:30.322Z,5.47
2024-02-20T21:52:07.892Z,6.08
2024-02-20T21:55:52.842Z,6.04
2024-02-20T21:59:35.452Z,5.92
2024-02-20T22:03:13.695Z,5.83
2024-02-20T22:06:47.699Z,5.74
2024-02-20T22:10:24.089Z,5.63
2024-02-20T22:13:44.198Z,5.59
2024-02-20T22:20:15.692Z,5.51
2024-02-20T22:23:26.906Z,5.47
2024-02-20T22:31:07.898Z,5.32
2024-02-20T22:38:18.942Z,5.22
2024-02-20T22:41:47.540Z,5.20
2024-02-20T22:52:41.575Z,5.10
2024-02-20T22:56:18.772Z,5.08
2024-02-20T23:00:24.059Z,5.09
2024-02-20T23:04:05.098Z,5.04
2024-02-20T23:07:53.136Z,4.99
2024-02-20T23:11:34.010Z,4.94
2024-02-20T23:15:48.083Z,4.95
2024-02-20T23:20:11.530Z,4.92
2024-02-20T23:23:51.864Z,4.90
2024-02-20T23:27:19.725Z,4.88
2024-02-20T23:35:42.180Z,4.88
2024-02-20T23:39:29.921Z,4.84
2024-02-20T23:43:16.176Z,4.84
2024-02-20T23:59:48.584Z,4.91
